createdAt,value
2018-07-07T06:29:32.532Z,59.45
2018-07-07T06:42:41.767Z,59.08
2018-07-07T06:46:45.473Z,59.86
2018-07-07T06:50:49.010Z,60.01
2018-07-07T06:54:52.467Z,58.85
2018-07-07T06:58:55.905Z,58.79
2018-07-07T07:02:59.517Z,57.30
2018-07-07T07:07:02.934Z,57.02
2018-07-07T07:11:06.362Z,55.44
2018-07-07T07:15:09.793Z,57.81
2018-07-07T07:19:13.530Z,56.08
2018-07-07T07:23:16.967Z,54.25
2018-07-07T07:27:20.471Z,54.95
2018-07-07T07:31:24.015Z,54.75
2018-07-07T07:35:27.406Z,53.75
2018-07-07T07:39:31.167Z,52.23
2018-07-07T07:43:34.549Z,53.01
2018-07-07T07:47:37.962Z,51.45
2018-07-07T07:51:41.603Z,50.48
2018-07-07T07:55:45.122Z,50.77
2018-07-07T07:59:48.770Z,50.57
2018-07-07T08:03:52.206Z,49.62
2018-07-07T08:07:55.683Z,48.78
2018-07-07T08:11:59.113Z,50.58
2018-07-07T08:16:02.544Z,50.04
2018-07-07T08:20:06.010Z,48.54
2018-07-07T08:24:09.469Z,47.87
2018-07-07T08:28:12.967Z,47.74
2018-07-07T08:32:16.397Z,47.31
2018-07-07T08:36:35.294Z,48.27
2018-07-07T08:40:38.730Z,47.82
2018-07-07T08:44:42.135Z,48.20
2018-07-07T08:48:45.562Z,48.50
2018-07-07T08:52:51.940Z,47.59
2018-07-07T08:56:55.341Z,47.52
2018-07-07T09:00:58.720Z,46.99
2018-07-07T09:05:02.140Z,47.70
2018-07-07T09:09:06.119Z,47.05
2018-07-07T09:13:09.543Z,47.45
2018-07-07T09:17:12.911Z,47.40
2018-07-07T09:44:25.558Z,45.18
2018-07-07T09:48:28.986Z,43.64
2018-07-07T09:52:32.409Z,44.79
2018-07-07T09:56:35.813Z,45.98
2018-07-07T10:00:41.612Z,44.53
2018-07-07T10:09:23.163Z,43.02
2018-07-07T10:13:26.562Z,44.24
2018-07-07T10:17:29.994Z,42.04
2018-07-07T10:21:33.405Z,43.06
2018-07-07T10:25:36.814Z,42.58
2018-07-07T10:29:40.206Z,42.75
2018-07-07T10:33:43.618Z,42.57
2018-07-07T10:37:47.033Z,43.58
2018-07-07T10:41:50.534Z,42.54
2018-07-07T10:45:54.168Z,42.14
2018-07-07T10:49:57.352Z,42.24
2018-07-07T10:54:00.753Z,40.20
2018-07-07T10:58:04.197Z,39.97
2018-07-07T11:02:07.582Z,40.82
2018-07-07T11:06:10.964Z,40.72
2018-07-07T11:10:14.352Z,41.12
2018-07-07T11:14:17.799Z,41.37
2018-07-07T11:18:21.211Z,41.23
2018-07-07T11:22:24.624Z,41.04
2018-07-07T11:26:28.255Z,40.27
2018-07-07T11:30:31.646Z,39.10
2018-07-07T11:34:35.058Z,39.92
2018-07-07T11:38:38.470Z,38.85
2018-07-07T11:42:42.084Z,38.32
2018-07-07T11:46:45.616Z,38.19
2018-07-07T11:50:49.317Z,38.39
2018-07-07T11:54:52.715Z,37.83
2018-07-07T11:58:56.168Z,37.25
2018-07-07T12:02:59.581Z,39.76
2018-07-07T12:07:02.955Z,40.69
2018-07-07T12:11:06.569Z,37.31
2018-07-07T12:15:09.972Z,38.86
2018-07-07T12:19:13.363Z,38.71
2018-07-07T12:23:16.858Z,37.28
2018-07-07T12:27:20.225Z,37.17
2018-07-07T12:31:23.688Z,37.81
2018-07-07T12:35:27.082Z,38.25
2018-07-07T12:39:30.456Z,38.74
2018-07-07T12:43:33.896Z,37.22
2018-07-07T12:47:37.274Z,38.64
2018-07-07T12:51:40.676Z,37.95
2018-07-07T12:55:44.064Z,36.46
2018-07-07T12:59:47.454Z,37.34
2018-07-07T13:03:50.853Z,36.40
2018-07-07T13:07:54.258Z,37.53
2018-07-07T13:11:57.703Z,35.59
2018-07-07T13:16:01.164Z,35.50
2018-07-07T13:20:04.734Z,35.48
2018-07-07T13:24:08.110Z,36.00
2018-07-07T13:28:11.531Z,35.20
2018-07-07T13:32:14.958Z,35.35
2018-07-07T13:36:18.342Z,34.91
2018-07-07T13:40:21.717Z,36.30
2018-07-07T13:44:25.119Z,35.50
2018-07-07T13:48:28.630Z,35.05
2018-07-07T13:52:32.035Z,35.64
2018-07-07T13:56:35.421Z,33.50
2018-07-07T14:00:38.831Z,32.81
2018-07-07T14:04:42.243Z,33.75
2018-07-07T14:08:45.622Z,34.92
2018-07-07T14:12:49.058Z,33.68
2018-07-07T14:16:52.480Z,31.82
2018-07-07T14:20:56.009Z,32.39
2018-07-07T14:24:59.378Z,32.89
2018-07-07T14:29:02.811Z,34.19
2018-07-07T14:33:06.222Z,32.63
2018-07-07T14:37:09.607Z,33.03
2018-07-07T14:41:17.379Z,32.19
2018-07-07T14:45:25.415Z,32.80
2018-07-07T14:49:28.802Z,32.67
2018-07-07T14:53:32.202Z,31.71
2018-07-07T14:57:36.001Z,33.31
2018-07-07T15:01:39.420Z,31.68
2018-07-07T15:05:42.805Z,32.98
2018-07-07T15:09:46.317Z,31.43
2018-07-07T15:13:49.745Z,32.33
2018-07-07T15:17:53.172Z,31.78
2018-07-07T15:21:56.592Z,33.25
2018-07-07T15:26:00.061Z,31.55
2018-07-07T15:30:03.532Z,31.11
2018-07-07T15:34:06.994Z,31.87
2018-07-07T15:38:10.383Z,32.75
2018-07-07T15:42:13.790Z,31.54
2018-07-07T15:46:17.198Z,31.94
2018-07-07T15:50:20.609Z,31.90
2018-07-07T15:54:23.975Z,32.13
2018-07-07T15:58:27.410Z,31.27
2018-07-07T16:02:30.845Z,32.01
2018-07-07T16:06:34.235Z,31.15
2018-07-07T16:10:37.658Z,30.31
2018-07-07T16:14:41.053Z,30.66
2018-07-07T16:18:44.430Z,31.22
2018-07-07T16:22:47.884Z,30.84
2018-07-07T16:26:51.303Z,30.56
2018-07-07T16:30:54.690Z,29.76
2018-07-07T16:34:58.088Z,30.70
2018-07-07T16:39:01.444Z,30.16
2018-07-07T16:43:04.894Z,30.28
2018-07-07T16:47:08.328Z,30.09
2018-07-07T16:51:12.121Z,30.81
2018-07-07T16:55:15.493Z,29.66
2018-07-07T16:59:19.082Z,30.25
2018-07-07T17:03:22.483Z,30.57
2018-07-07T17:07:25.880Z,30.79
2018-07-07T17:11:29.265Z,30.28
2018-07-07T17:15:33.600Z,30.81
2018-07-07T17:19:37.007Z,30.88
2018-07-07T17:23:40.461Z,30.49
2018-07-07T17:27:43.941Z,30.79
2018-07-07T17:31:48.093Z,31.00
2018-07-07T17:35:51.453Z,31.54
2018-07-07T17:39:54.876Z,31.50
2018-07-07T17:43:58.322Z,31.58
2018-07-07T17:48:01.756Z,30.39
2018-07-07T17:52:05.168Z,31.38
2018-07-07T17:56:08.638Z,31.61
2018-07-07T18:00:12.433Z,31.11
2018-07-07T18:04:15.879Z,31.61
2018-07-07T18:08:19.265Z,30.59
2018-07-07T18:12:22.670Z,31.71
2018-07-07T18:16:26.086Z,31.40
2018-07-07T18:20:29.462Z,30.27
2018-07-07T18:24:32.862Z,31.22
2018-07-07T18:28:36.258Z,30.70
2018-07-07T18:32:39.649Z,31.02
2018-07-07T18:36:43.228Z,31.42
2018-07-07T18:40:46.630Z,30.46
2018-07-07T18:44:50.045Z,30.39
2018-07-07T18:48:53.554Z,30.66
2018-07-07T18:52:56.989Z,31.24
2018-07-07T18:57:00.351Z,30.91
2018-07-07T19:01:04.072Z,32.16
2018-07-07T19:05:07.550Z,31.65
2018-07-07T19:09:10.952Z,31.41
2018-07-07T19:13:14.374Z,32.30
2018-07-07T19:17:17.774Z,31.50
2018-07-07T19:21:26.433Z,31.80
2018-07-07T19:25:35.128Z,32.83
2018-07-07T19:29:38.518Z,33.00
2018-07-07T19:33:47.117Z,33.07
2018-07-07T19:37:50.521Z,32.72
2018-07-07T19:41:53.983Z,33.03
2018-07-07T19:45:57.357Z,33.74
2018-07-07T19:50:00.803Z,33.72
2018-07-07T19:54:04.192Z,33.59
2018-07-07T19:58:07.594Z,34.91
2018-07-07T20:02:11.003Z,35.10
2018-07-07T20:06:14.397Z,35.01
2018-07-07T20:10:18.048Z,34.89
2018-07-07T20:14:25.098Z,34.25
2018-07-07T20:18:38.661Z,34.82
2018-07-07T20:22:42.193Z,34.84
2018-07-07T20:26:50.631Z,35.12
2018-07-07T20:30:57.623Z,34.82
2018-07-07T20:35:01.049Z,35.12
2018-07-07T20:39:04.699Z,35.16
2018-07-07T20:43:08.179Z,35.02
2018-07-07T20:47:11.569Z,34.90
2018-07-07T20:51:14.978Z,35.26
2018-07-07T20:55:18.426Z,34.93
2018-07-07T20:59:21.830Z,35.37
2018-07-07T21:03:25.248Z,34.67
2018-07-07T21:07:28.674Z,34.90
2018-07-07T21:11:32.097Z,34.90
2018-07-07T21:15:35.480Z,35.09
2018-07-07T21:19:38.902Z,35.10
2018-07-07T21:23:42.374Z,34.56
2018-07-07T21:27:45.676Z,34.67
2018-07-07T21:31:49.114Z,34.87
2018-07-07T21:35:52.589Z,34.62
2018-07-07T21:39:55.995Z,35.05
2018-07-07T21:43:59.383Z,35.59
2018-07-07T21:48:02.820Z,35.19
2018-07-07T21:52:06.332Z,35.18
2018-07-07T21:56:09.837Z,35.25
2018-07-07T22:00:17.469Z,35.04
2018-07-07T22:04:26.268Z,34.22
2018-07-07T22:08:29.780Z,35.33
2018-07-07T22:12:33.196Z,33.97
2018-07-07T22:16:36.735Z,33.70
2018-07-07T22:20:40.171Z,34.16
2018-07-07T22:24:44.160Z,34.10
2018-07-07T22:28:47.582Z,34.82
2018-07-07T22:32:51.045Z,35.10
2018-07-07T22:36:54.670Z,34.78
2018-07-07T22:40:58.316Z,34.29
2018-07-07T22:45:01.744Z,34.99
2018-07-07T22:49:05.174Z,34.67
2018-07-07T22:53:08.604Z,34.45
2018-07-07T22:57:12.006Z,35.32
2018-07-07T23:01:15.410Z,34.95
2018-07-07T23:09:21.238Z,35.42
2018-07-07T23:13:24.641Z,36.24
2018-07-07T23:17:28.058Z,36.49
2018-07-07T23:21:31.610Z,35.75
2018-07-07T23:25:35.072Z,36.17
2018-07-07T23:29:38.473Z,35.55
2018-07-07T23:33:41.904Z,35.96
2018-07-07T23:37:45.332Z,35.38
2018-07-07T23:41:48.747Z,35.65
2018-07-07T23:45:52.159Z,35.12
2018-07-07T23:49:55.567Z,35.12
2018-07-07T23:53:58.979Z,35.48
2018-07-07T23:58:02.416Z,35.68
